createdAt,value
2022-10-28T00:00:52.635Z,101834.75
2022-10-28T00:03:20.517Z,101824.88
2022-10-28T00:05:48.055Z,101820.53
2022-10-28T00:08:15.578Z,101820.53
2022-10-28T00:10:44.438Z,101821.53
2022-10-28T00:13:12.049Z,101815.38
2022-10-28T00:15:39.619Z,101821.75
2022-10-28T00:18:07.242Z,101818.22
2022-10-28T00:20:34.766Z,101818.44
2022-10-28T00:23:02.288Z,101825.63
2022-10-28T00:25:29.817Z,101815.91
2022-10-28T00:27:58.670Z,101808.09
2022-10-28T00:30:26.338Z,101810.94
2022-10-28T00:32:54.153Z,101821.03
2022-10-28T00:35:21.853Z,101819.56
2022-10-28T00:37:49.369Z,101818.91
2022-10-28T00:40:16.946Z,101821.78
2022-10-28T00:42:44.483Z,101820.13
2022-10-28T00:45:13.706Z,101817.63
2022-10-28T00:47:45.290Z,101818.81
2022-10-28T00:50:27.675Z,101822.53
2022-10-28T00:52:59.758Z,101820.25
2022-10-28T00:55:27.890Z,101824.13
2022-10-28T00:57:57.044Z,101817.09
2022-10-28T01:00:27.008Z,101820.16
2022-10-28T01:02:54.632Z,101830.22
2022-10-28T01:05:24.127Z,101812.69
2022-10-28T01:07:54.230Z,101810.19
2022-10-28T01:10:29.466Z,101815.75
2022-10-28T01:13:11.220Z,101811.78
2022-10-28T01:15:48.197Z,101814.63
2022-10-28T01:18:23.526Z,101805.78
2022-10-28T01:21:21.081Z,101811.50
2022-10-28T01:24:00.570Z,101815.16
2022-10-28T01:26:45.841Z,101814.69
2022-10-28T01:29:45.857Z,101816.75
2022-10-28T01:32:18.509Z,101816.06
2022-10-28T01:34:53.992Z,101803.91
2022-10-28T01:37:30.526Z,101807.63
2022-10-28T01:40:09.405Z,101812.31
2022-10-28T01:42:42.546Z,101810.66
2022-10-28T01:45:15.807Z,101810.66
2022-10-28T01:47:51.439Z,101808.34
2022-10-28T01:50:25.933Z,101808.53
2022-10-28T01:52:57.727Z,101811.41
2022-10-28T01:55:29.134Z,101797.34
2022-10-28T01:57:59.939Z,101809.09
2022-10-28T02:00:28.348Z,101804.94
2022-10-28T02:02:57.413Z,101795.41
2022-10-28T02:05:39.868Z,101802.81
2022-10-28T02:08:23.245Z,101803.19
2022-10-28T02:11:04.175Z,101800.88
2022-10-28T02:13:41.417Z,101805.75
2022-10-28T02:16:18.594Z,101805.13
2022-10-28T02:18:54.290Z,101807.16
2022-10-28T02:21:31.142Z,101802.63
2022-10-28T02:24:09.562Z,101811.69
2022-10-28T02:26:42.294Z,101798.47
2022-10-28T02:29:18.506Z,101795.16
2022-10-28T02:31:50.122Z,101790.81
2022-10-28T02:34:22.796Z,101788.34
2022-10-28T02:36:53.618Z,101793.84
2022-10-28T02:39:25.602Z,101798.19
2022-10-28T02:41:56.889Z,101785.66
2022-10-28T02:44:29.005Z,101777.78
2022-10-28T02:47:00.836Z,101783.16
2022-10-28T02:49:33.319Z,101781.50
2022-10-28T02:52:04.341Z,101776.16
2022-10-28T02:54:38.929Z,101775.31
2022-10-28T02:57:10.561Z,101778.16
2022-10-28T02:59:38.082Z,101771.16
2022-10-28T03:02:05.886Z,101767.66
2022-10-28T03:04:34.949Z,101780.41
2022-10-28T03:07:02.494Z,101776.06
2022-10-28T03:09:30.070Z,101773.38
2022-10-28T03:11:57.585Z,101775.59
2022-10-28T03:14:25.099Z,101772.44
2022-10-28T03:16:52.658Z,101765.81
2022-10-28T03:19:20.177Z,101760.00
2022-10-28T03:21:49.046Z,101761.84
2022-10-28T03:24:16.573Z,101756.84
2022-10-28T03:26:44.101Z,101759.53
2022-10-28T03:29:11.629Z,101757.84
2022-10-28T03:31:39.193Z,101772.25
2022-10-28T03:34:06.707Z,101775.94
2022-10-28T03:36:34.241Z,101776.09
2022-10-28T03:39:03.293Z,101774.25
2022-10-28T03:41:30.850Z,101775.09
2022-10-28T03:43:58.418Z,101773.06
2022-10-28T03:46:25.962Z,101769.59
2022-10-28T03:48:53.925Z,101766.72
2022-10-28T03:51:21.621Z,101776.56
2022-10-28T03:53:49.485Z,101773.91
2022-10-28T03:56:18.391Z,101767.72
2022-10-28T03:58:48.476Z,101762.56
2022-10-28T04:01:16.131Z,101764.25
2022-10-28T04:03:43.749Z,101749.00
2022-10-28T04:06:11.281Z,101746.16
2022-10-28T04:08:39.986Z,101745.97
2022-10-28T04:11:07.546Z,101743.13
2022-10-28T04:13:36.593Z,101754.09
2022-10-28T04:16:04.388Z,101754.75
2022-10-28T04:18:32.042Z,101753.34
2022-10-28T04:20:59.662Z,101745.78
2022-10-28T04:23:27.212Z,101748.09
2022-10-28T04:25:55.547Z,101750.41
2022-10-28T04:28:24.206Z,101750.03
2022-10-28T04:30:53.093Z,101741.81
2022-10-28T04:33:20.629Z,101739.13
2022-10-28T04:35:49.034Z,101738.75
2022-10-28T04:38:16.633Z,101724.38
2022-10-28T04:40:44.220Z,101723.38
2022-10-28T04:43:12.060Z,101718.84
2022-10-28T04:45:39.983Z,101715.13
2022-10-28T04:48:10.246Z,101720.13
2022-10-28T04:50:37.867Z,101712.75
2022-10-28T04:53:05.437Z,101716.06
2022-10-28T04:55:32.954Z,101716.69
2022-10-28T04:58:02.028Z,101725.56
2022-10-28T05:00:30.999Z,101720.84
2022-10-28T05:03:01.690Z,101717.16
2022-10-28T05:05:30.744Z,101716.16
2022-10-28T05:07:58.391Z,101720.66
2022-10-28T05:10:26.057Z,101715.13
2022-10-28T05:12:53.687Z,101714.13
2022-10-28T05:15:22.018Z,101711.44
2022-10-28T05:17:50.386Z,101712.06
2022-10-28T05:20:19.365Z,101719.72
2022-10-28T05:22:50.060Z,101720.38
2022-10-28T05:25:18.040Z,101715.66
2022-10-28T05:27:46.025Z,101716.28
2022-10-28T05:30:14.953Z,101706.25
2022-10-28T05:32:42.836Z,101709.72
2022-10-28T05:35:11.430Z,101700.50
2022-10-28T05:37:38.965Z,101701.16
2022-10-28T05:40:09.453Z,101705.66
2022-10-28T05:42:41.713Z,101698.09
2022-10-28T05:45:09.994Z,101706.13
2022-10-28T05:47:39.981Z,101710.47
2022-10-28T05:50:08.435Z,101699.94
2022-10-28T05:52:35.954Z,101699.94
2022-10-28T05:55:03.495Z,101690.22
2022-10-28T05:57:34.814Z,101691.44
2022-10-28T06:00:02.485Z,101693.50
2022-10-28T06:02:30.020Z,101696.34
2022-10-28T06:04:57.571Z,101707.25
2022-10-28T06:07:25.168Z,101702.09
2022-10-28T06:09:52.805Z,101697.75
2022-10-28T06:12:18.810Z,101691.78
2022-10-28T06:14:47.716Z,101698.13
2022-10-28T06:17:15.260Z,101704.69
2022-10-28T06:19:42.827Z,101700.19
2022-10-28T06:22:11.042Z,101691.31
2022-10-28T06:24:38.590Z,101691.94
2022-10-28T06:27:06.545Z,101696.28
2022-10-28T06:29:34.182Z,101700.44
2022-10-28T06:32:03.310Z,101698.38
2022-10-28T06:34:30.833Z,101707.06
2022-10-28T06:36:58.378Z,101707.50
2022-10-28T06:41:54.373Z,101702.06
2022-10-28T06:44:21.904Z,101694.31
2022-10-28T06:46:50.947Z,101701.59
2022-10-28T06:49:19.843Z,101694.63
2022-10-28T06:51:47.364Z,101697.38
2022-10-28T06:54:14.904Z,101690.22
2022-10-28T06:56:45.172Z,101696.09
2022-10-28T06:59:13.537Z,101695.97
2022-10-28T07:01:41.200Z,101696.09
2022-10-28T07:04:12.671Z,101701.56
2022-10-28T07:06:41.706Z,101704.53
2022-10-28T07:09:10.112Z,101696.72
2022-10-28T07:11:37.656Z,101705.84
2022-10-28T07:14:05.192Z,101697.41
2022-10-28T07:16:32.747Z,101705.69
2022-10-28T07:19:00.324Z,101700.59
2022-10-28T07:21:29.771Z,101699.97
2022-10-28T07:23:58.661Z,101700.41
2022-10-28T07:26:26.344Z,101694.06
2022-10-28T07:28:54.448Z,101694.97
2022-10-28T07:31:22.331Z,101699.53
2022-10-28T07:33:53.364Z,101695.63
2022-10-28T07:36:21.400Z,101690.25
2022-10-28T07:38:49.988Z,101701.25
2022-10-28T07:41:20.451Z,101693.41
2022-10-28T07:43:47.986Z,101694.28
2022-10-28T07:46:15.685Z,101688.09
2022-10-28T07:48:43.595Z,101689.41
2022-10-28T07:51:14.053Z,101686.75
2022-10-28T07:53:42.502Z,101688.41
2022-10-28T07:56:13.513Z,101685.13
2022-10-28T07:58:43.546Z,101694.06
2022-10-28T08:01:13.120Z,101684.53
2022-10-28T08:03:41.099Z,101684.19
2022-10-28T08:06:11.379Z,101678.38
2022-10-28T08:08:39.867Z,101688.72
2022-10-28T08:11:11.333Z,101689.56
2022-10-28T08:13:40.264Z,101687.28
2022-10-28T08:16:09.994Z,101689.34
2022-10-28T08:18:38.636Z,101681.25
2022-10-28T08:21:07.616Z,101677.94
2022-10-28T08:23:35.554Z,101676.47
2022-10-28T08:26:03.660Z,101677.47
2022-10-28T08:28:31.268Z,101673.28
2022-10-28T08:31:08.775Z,101673.72
2022-10-28T08:33:39.499Z,101666.63
2022-10-28T08:36:08.505Z,101679.16
2022-10-28T08:38:36.049Z,101671.28
2022-10-28T08:41:13.593Z,101665.34
2022-10-28T08:43:58.114Z,101669.88
2022-10-28T08:46:35.878Z,101666.44
2022-10-28T08:49:10.914Z,101670.53
2022-10-28T08:51:46.041Z,101665.34
2022-10-28T08:54:18.781Z,101660.84
2022-10-28T08:56:49.813Z,101659.56
2022-10-28T08:59:22.583Z,101656.41
2022-10-28T09:04:30.740Z,101653.78
2022-10-28T09:06:58.396Z,101642.47
2022-10-28T09:09:26.139Z,101654.53
2022-10-28T09:12:16.650Z,101651.59
2022-10-28T09:14:58.711Z,101657.47
2022-10-28T09:17:38.352Z,101651.31
2022-10-28T09:20:18.235Z,101651.78
2022-10-28T09:22:56.623Z,101644.34
2022-10-28T09:25:32.052Z,101638.41
2022-10-28T09:28:16.116Z,101632.06
2022-10-28T09:30:53.082Z,101634.56
2022-10-28T09:33:50.781Z,101637.06
2022-10-28T09:36:25.396Z,101631.69
2022-10-28T09:38:57.184Z,101640.63
2022-10-28T09:41:28.991Z,101637.81
2022-10-28T09:44:04.740Z,101636.88
2022-10-28T09:46:36.246Z,101633.59
2022-10-28T09:49:12.616Z,101632.25
2022-10-28T09:51:48.947Z,101630.38
2022-10-28T09:54:17.849Z,101625.53
2022-10-28T09:56:45.377Z,101625.69
2022-10-28T09:59:15.480Z,101625.06
2022-10-28T10:01:45.741Z,101624.84
2022-10-28T10:04:19.515Z,101628.84
2022-10-28T10:06:52.484Z,101627.91
2022-10-28T10:09:25.629Z,101622.38
2022-10-28T10:11:56.706Z,101623.31
2022-10-28T10:14:29.898Z,101619.69
2022-10-28T10:17:01.128Z,101620.03
2022-10-28T10:19:28.690Z,101631.19
2022-10-28T10:21:57.596Z,101628.84
2022-10-28T10:24:29.551Z,101620.50
2022-10-28T10:26:58.412Z,101622.84
2022-10-28T10:29:26.649Z,101624.59
2022-10-28T10:32:08.063Z,101613.16
2022-10-28T10:34:36.160Z,101617.50
2022-10-28T10:37:05.631Z,101607.72
2022-10-28T10:39:37.390Z,101612.16
2022-10-28T10:42:17.142Z,101602.72
2022-10-28T10:44:44.934Z,101605.53
2022-10-28T10:47:19.941Z,101593.97
2022-10-28T10:49:49.676Z,101587.34
2022-10-28T10:52:22.685Z,101585.53
2022-10-28T10:55:02.339Z,101589.50
2022-10-28T10:57:30.599Z,101585.81
2022-10-28T10:59:58.762Z,101586.63
2022-10-28T11:02:30.848Z,101579.53
2022-10-28T11:05:01.165Z,101568.38
2022-10-28T11:07:32.800Z,101579.22
2022-10-28T11:10:01.419Z,101569.28
2022-10-28T11:12:31.854Z,101564.44
2022-10-28T11:15:00.987Z,101560.06
2022-10-28T11:17:30.328Z,101563.94
2022-10-28T11:20:00.217Z,101564.44
2022-10-28T11:22:43.815Z,101560.81
2022-10-28T11:25:34.009Z,101559.50
2022-10-28T11:28:14.204Z,101566.81
2022-10-28T11:30:55.518Z,101569.03
2022-10-28T11:33:32.681Z,101567.88
2022-10-28T11:36:10.755Z,101577.16
2022-10-28T11:38:57.828Z,101578.13
2022-10-28T11:41:36.923Z,101581.56
2022-10-28T11:44:16.307Z,101580.16
2022-10-28T11:47:00.884Z,101582.63
2022-10-28T11:49:43.489Z,101578.84
2022-10-28T11:52:25.928Z,101569.88
2022-10-28T11:55:08.402Z,101558.88
2022-10-28T11:57:53.089Z,101571.88
2022-10-28T12:00:33.662Z,101567.28
2022-10-28T12:03:19.544Z,101567.59
2022-10-28T12:05:54.548Z,101567.34
2022-10-28T12:08:44.669Z,101571.47
2022-10-28T12:11:24.548Z,101554.69
2022-10-28T12:13:59.320Z,101549.28
2022-10-28T12:16:35.418Z,101550.69
2022-10-28T12:19:09.268Z,101547.63
2022-10-28T12:21:41.000Z,101548.19
2022-10-28T12:24:15.754Z,101536.06
2022-10-28T12:26:49.327Z,101535.91
2022-10-28T12:29:21.960Z,101534.56
2022-10-28T12:31:54.868Z,101537.28
2022-10-28T12:34:29.214Z,101538.72
2022-10-28T12:37:02.627Z,101534.50
2022-10-28T12:39:34.809Z,101527.69
2022-10-28T12:42:12.224Z,101530.97
2022-10-28T12:44:40.588Z,101528.19
2022-10-28T12:47:18.461Z,101530.66
2022-10-28T12:49:56.722Z,101535.84
2022-10-28T12:52:34.103Z,101530.03
2022-10-28T12:55:08.508Z,101530.44
2022-10-28T12:57:39.716Z,101529.09
2022-10-28T13:00:18.945Z,101524.38
2022-10-28T13:02:52.040Z,101526.28
2022-10-28T13:05:25.401Z,101522.75
2022-10-28T13:08:17.931Z,101523.78
2022-10-28T13:10:51.194Z,101526.50
2022-10-28T13:13:32.745Z,101516.28
2022-10-28T13:16:25.979Z,101521.28
2022-10-28T13:19:19.325Z,101520.03
2022-10-28T13:22:11.688Z,101519.28
2022-10-28T13:24:50.323Z,101515.75
2022-10-28T13:27:18.536Z,101511.56
2022-10-28T13:29:52.898Z,101508.25
2022-10-28T13:32:34.084Z,101517.69
2022-10-28T13:35:14.837Z,101503.09
2022-10-28T13:37:46.908Z,101501.09
2022-10-28T13:41:02.301Z,101498.16
2022-10-28T13:44:14.968Z,101494.72
2022-10-28T13:47:19.184Z,101482.72
2022-10-28T13:50:14.900Z,101482.25
2022-10-28T13:52:44.191Z,101471.66
2022-10-28T13:55:23.553Z,101473.19
2022-10-28T13:57:53.576Z,101467.47
2022-10-28T14:00:38.621Z,101466.28
2022-10-28T14:03:16.384Z,101468.06
2022-10-28T14:05:58.311Z,101475.03
2022-10-28T14:08:30.855Z,101473.88
2022-10-28T14:11:09.909Z,101476.44
2022-10-28T14:13:40.625Z,101489.88
2022-10-28T14:16:18.181Z,101489.78
2022-10-28T14:18:55.616Z,101487.22
2022-10-28T14:21:25.071Z,101489.56
2022-10-28T14:24:32.353Z,101487.56
2022-10-28T14:27:31.110Z,101485.00
2022-10-28T14:30:18.728Z,101494.91
2022-10-28T14:32:58.423Z,101485.00
2022-10-28T14:35:34.051Z,101488.63
2022-10-28T14:38:48.404Z,101490.38
2022-10-28T14:41:52.196Z,101485.59
2022-10-28T14:44:39.700Z,101480.50
2022-10-28T14:47:25.306Z,101479.81
2022-10-28T14:50:01.580Z,101488.03
2022-10-28T14:52:31.140Z,101477.56
2022-10-28T14:55:02.928Z,101477.41
2022-10-28T14:57:33.995Z,101480.25
2022-10-28T15:00:05.341Z,101473.09
2022-10-28T15:02:35.639Z,101475.88
2022-10-28T15:05:14.344Z,101473.03
2022-10-28T15:07:42.893Z,101479.81
2022-10-28T15:10:18.844Z,101486.94
2022-10-28T15:12:48.904Z,101480.00
2022-10-28T15:15:18.802Z,101485.47
2022-10-28T15:17:46.500Z,101484.41
2022-10-28T15:20:21.886Z,101491.16
2022-10-28T15:22:49.560Z,101499.22
2022-10-28T15:25:20.876Z,101501.38
2022-10-28T15:27:52.448Z,101498.38
2022-10-28T15:30:23.564Z,101493.31
2022-10-28T15:32:51.775Z,101492.53
2022-10-28T15:35:39.093Z,101488.25
2022-10-28T15:38:26.344Z,101487.50
2022-10-28T15:40:55.541Z,101493.16
2022-10-28T15:43:25.840Z,101484.91
2022-10-28T15:45:53.492Z,101491.44
2022-10-28T15:48:24.523Z,101499.34
2022-10-28T15:51:13.514Z,101488.66
2022-10-28T15:53:41.670Z,101482.25
2022-10-28T15:56:22.915Z,101484.78
2022-10-28T15:59:04.131Z,101488.97
2022-10-28T16:01:38.752Z,101499.38
2022-10-28T16:04:07.133Z,101490.31
2022-10-28T16:06:37.317Z,101479.16
2022-10-28T16:09:13.131Z,101499.47
2022-10-28T16:11:45.950Z,101488.31
2022-10-28T16:14:30.991Z,101499.53
2022-10-28T16:17:12.440Z,101488.34
2022-10-28T16:19:43.544Z,101487.75
2022-10-28T16:22:13.845Z,101490.06
2022-10-28T16:24:41.499Z,101499.22
2022-10-28T16:27:22.127Z,101496.94
2022-10-28T16:29:50.607Z,101497.97
2022-10-28T16:32:25.923Z,101494.69
2022-10-28T16:34:53.467Z,101505.66
2022-10-28T16:37:23.944Z,101497.81
2022-10-28T16:39:51.628Z,101494.72
2022-10-28T16:42:21.854Z,101491.63
2022-10-28T16:44:49.637Z,101493.91
2022-10-28T16:47:19.727Z,101494.34
2022-10-28T16:49:52.502Z,101496.44
2022-10-28T16:52:25.829Z,101497.69
2022-10-28T16:54:53.596Z,101503.50
2022-10-28T16:59:56.601Z,101508.69
2022-10-28T17:02:28.153Z,101512.44
2022-10-28T17:04:55.826Z,101509.34
2022-10-28T17:07:23.464Z,101505.22
2022-10-28T17:09:51.942Z,101500.28
2022-10-28T17:12:22.749Z,101511.47
2022-10-28T17:14:50.427Z,101511.69
2022-10-28T17:17:18.485Z,101507.56
2022-10-28T17:19:46.753Z,101506.72
2022-10-28T17:22:14.635Z,101498.06
2022-10-28T17:24:42.308Z,101511.50
2022-10-28T17:27:09.932Z,101503.22
2022-10-28T17:29:39.044Z,101506.94
2022-10-28T17:32:08.547Z,101505.69
2022-10-28T17:34:36.304Z,101510.66
2022-10-28T17:37:04.269Z,101502.38
2022-10-28T17:39:32.035Z,101510.22
2022-10-28T17:41:59.617Z,101508.56
2022-10-28T17:44:27.296Z,101507.75
2022-10-28T17:46:56.238Z,101504.66
2022-10-28T17:49:23.768Z,101507.56
2022-10-28T17:51:52.059Z,101513.16
2022-10-28T17:54:19.636Z,101522.28
2022-10-28T17:56:47.732Z,101520.59
2022-10-28T17:59:15.707Z,101520.59
2022-10-28T18:01:43.438Z,101516.88
2022-10-28T18:04:12.458Z,101520.41
2022-10-28T18:06:40.352Z,101521.25
2022-10-28T18:09:11.569Z,101536.31
2022-10-28T18:11:39.812Z,101527.44
2022-10-28T18:14:07.674Z,101533.63
2022-10-28T18:16:37.566Z,101548.97
2022-10-28T18:19:06.482Z,101543.59
2022-10-28T18:21:35.598Z,101540.06
2022-10-28T18:24:04.479Z,101534.47
2022-10-28T18:26:32.700Z,101544.41
2022-10-28T18:29:03.776Z,101537.97
2022-10-28T18:31:32.912Z,101538.81
2022-10-28T18:34:01.323Z,101547.72
2022-10-28T18:36:30.781Z,101535.91
2022-10-28T18:38:59.681Z,101531.56
2022-10-28T18:41:29.507Z,101537.78
2022-10-28T18:43:58.592Z,101536.72
2022-10-28T18:46:26.608Z,101542.09
2022-10-28T18:48:54.673Z,101554.53
2022-10-28T18:51:22.517Z,101555.38
2022-10-28T18:53:50.587Z,101566.50
2022-10-28T18:56:21.442Z,101568.16
2022-10-28T18:58:51.490Z,101567.75
2022-10-28T19:01:20.986Z,101567.31
2022-10-28T19:03:52.755Z,101569.19
2022-10-28T19:06:21.051Z,101563.59
2022-10-28T19:08:53.288Z,101567.91
2022-10-28T19:11:23.026Z,101570.59
2022-10-28T19:13:50.640Z,101570.41
2022-10-28T19:16:18.508Z,101571.25
2022-10-28T19:18:46.044Z,101570.41
2022-10-28T19:21:15.217Z,101584.06
2022-10-28T19:23:43.710Z,101582.44
2022-10-28T19:26:13.064Z,101588.66
2022-10-28T19:28:43.189Z,101601.28
2022-10-28T19:31:12.678Z,101601.88
2022-10-28T19:33:40.709Z,101604.56
2022-10-28T19:36:12.754Z,101597.31
2022-10-28T19:38:40.295Z,101604.38
2022-10-28T19:41:10.045Z,101592.53
2022-10-28T19:43:38.194Z,101619.47
2022-10-28T19:46:10.209Z,101612.22
2022-10-28T19:48:38.700Z,101616.78
2022-10-28T19:51:06.757Z,101618.63
2022-10-28T19:53:34.633Z,101618.63
2022-10-28T19:56:04.103Z,101627.53
2022-10-28T19:58:32.562Z,101624.25
2022-10-28T20:01:01.781Z,101622.59
2022-10-28T20:03:34.427Z,101634.41
2022-10-28T20:06:06.427Z,101629.03
2022-10-28T20:08:35.249Z,101630.88
2022-10-28T20:11:04.643Z,101641.84
2022-10-28T20:13:32.497Z,101663.19
2022-10-28T20:16:02.838Z,101657.16
2022-10-28T20:18:32.991Z,101647.47
2022-10-28T20:21:05.745Z,101653.88
2022-10-28T20:23:35.539Z,101670.25
2022-10-28T20:26:04.508Z,101664.88
2022-10-28T20:28:32.327Z,101678.31
2022-10-28T20:31:01.511Z,101685.16
2022-10-28T20:33:30.137Z,101681.44
2022-10-28T20:35:59.404Z,101692.41
2022-10-28T20:38:27.910Z,101690.94
2022-10-28T20:40:57.504Z,101685.56
2022-10-28T20:43:26.888Z,101681.22
2022-10-28T20:45:56.212Z,101675.22
2022-10-28T20:48:24.431Z,101676.06
2022-10-28T20:50:53.496Z,101676.47
2022-10-28T20:53:23.851Z,101669.44
2022-10-28T20:55:52.382Z,101677.50
2022-10-28T20:58:21.440Z,101679.59
2022-10-28T21:00:49.240Z,101695.75
2022-10-28T21:03:17.190Z,101699.44
2022-10-28T21:05:44.824Z,101693.47
2022-10-28T21:08:13.268Z,101701.53
2022-10-28T21:10:42.237Z,101714.16
2022-10-28T21:13:09.772Z,101718.72
2022-10-28T21:15:39.138Z,101717.69
2022-10-28T21:18:08.547Z,101722.66
2022-10-28T21:20:36.983Z,101728.88
2022-10-28T21:23:05.157Z,101730.94
2022-10-28T21:25:33.526Z,101736.31
2022-10-28T21:28:02.425Z,101742.13
2022-10-28T21:30:30.072Z,101740.66
2022-10-28T21:32:58.097Z,101747.69
2022-10-28T21:35:26.776Z,101747.91
2022-10-28T21:37:55.995Z,101748.94
2022-10-28T21:40:23.845Z,101746.66
2022-10-28T21:42:51.391Z,101745.22
2022-10-28T21:45:20.268Z,101752.25
2022-10-28T21:47:47.883Z,101749.16
2022-10-28T21:50:15.686Z,101748.31
2022-10-28T21:52:43.252Z,101760.09
2022-10-28T21:55:20.379Z,101760.31
2022-10-28T21:57:54.903Z,101768.81
2022-10-28T22:00:24.152Z,101762.78
2022-10-28T22:02:52.101Z,101766.53
2022-10-28T22:05:19.766Z,101770.84
2022-10-28T22:07:47.297Z,101755.13
2022-10-28T22:10:15.064Z,101756.19
2022-10-28T22:12:42.609Z,101762.81
2022-10-28T22:15:10.765Z,101766.31
2022-10-28T22:17:40.226Z,101769.41
2022-10-28T22:20:09.714Z,101783.91
2022-10-28T22:22:37.738Z,101779.94
2022-10-28T22:25:09.413Z,101771.69
2022-10-28T22:27:38.203Z,101775.59
2022-10-28T22:30:06.212Z,101774.38
2022-10-28T22:32:33.781Z,101776.81
2022-10-28T22:35:02.749Z,101784.09
2022-10-28T22:37:30.348Z,101773.53
2022-10-28T22:39:57.922Z,101787.97
2022-10-28T22:42:25.667Z,101797.50
2022-10-28T22:44:53.192Z,101793.16
2022-10-28T22:47:20.729Z,101805.50
2022-10-28T22:49:48.247Z,101801.56
2022-10-28T22:52:17.137Z,101807.34
2022-10-28T22:54:44.641Z,101804.25
2022-10-28T22:57:12.195Z,101799.88
2022-10-28T22:59:39.735Z,101795.91
2022-10-28T23:02:07.353Z,101791.56
2022-10-28T23:04:34.959Z,101793.81
2022-10-28T23:07:02.511Z,101802.69
2022-10-28T23:09:31.388Z,101807.63
2022-10-28T23:11:58.917Z,101805.31
2022-10-28T23:14:26.458Z,101816.69
2022-10-28T23:16:53.996Z,101813.38
2022-10-28T23:19:21.538Z,101819.75
2022-10-28T23:21:49.060Z,101826.16
2022-10-28T23:24:16.608Z,101831.09
2022-10-28T23:26:45.539Z,101826.09
2022-10-28T23:29:14.074Z,101840.59
2022-10-28T23:31:41.583Z,101846.13
2022-10-28T23:34:09.134Z,101833.94
2022-10-28T23:36:36.668Z,101835.38
2022-10-28T23:39:04.236Z,101842.78
2022-10-28T23:41:31.766Z,101837.97
2022-10-28T23:44:01.404Z,101837.75
2022-10-28T23:46:32.301Z,101846.19
2022-10-28T23:49:02.436Z,101839.75
2022-10-28T23:51:29.969Z,101853.97
2022-10-28T23:53:57.631Z,101867.53
2022-10-28T23:56:25.323Z,101866.59
2022-10-28T23:58:52.848Z,101871.50
